| time (UTC) | temp C | wind direction | speed KPH | gust KPH | rain 1hr cm | rain 24hr cm | rain mn cm | humidity % | barometer mb |
| 20260509234553 | 13 | 200 | 1.6 | 6.4 | 0.00 | 0.41 | 0.41 | 88 | 1006.3 |
| 20260509233048 | 13 | 187 | 1.6 | 8.0 | 0.00 | 0.41 | 0.41 | 88 | 1006.1 |
| 20260509231542 | 13 | 209 | 1.6 | 6.4 | 0.00 | 0.41 | 0.41 | 88 | 1006.2 |
| 20260509230041 | 13 | 227 | 1.6 | 9.7 | 0.00 | 0.41 | 0.41 | 88 | 1006.3 |
| 20260509224540 | 13 | 240 | 3.2 | 12.9 | 0.00 | 0.41 | 0.41 | 87 | 1006.5 |
| 20260509223045 | 13 | 206 | 3.2 | 11.3 | 0.00 | 0.41 | 0.41 | 89 | 1006.3 |
| 20260509221538 | 13 | 200 | 1.6 | 9.7 | 0.00 | 0.41 | 0.41 | 90 | 1006.5 |
| 20260509220037 | 13 | 240 | 3.2 | 11.3 | 0.00 | 0.41 | 0.41 | 90 | 1006.6 |
| 20260509214536 | 13 | 250 | 3.2 | 9.7 | 0.00 | 0.41 | 0.41 | 90 | 1006.7 |
| 20260509213036 | 13 | 215 | 3.2 | 8.0 | 0.00 | 0.41 | 0.41 | 90 | 1006.7 |
| 20260509211534 | 13 | 225 | 3.2 | 9.7 | 0.00 | 0.41 | 0.41 | 93 | 1006.6 |
| 20260509210035 | 13 | 258 | 3.2 | 8.0 | 0.00 | 0.41 | 0.41 | 94 | 1006.7 |
| 20260509204528 | 12 | 207 | 1.6 | 8.0 | 0.00 | 0.41 | 0.41 | 95 | 1007.0 |
| 20260509203028 | 12 | 205 | 1.6 | 6.4 | 0.00 | 0.41 | 0.41 | 95 | 1007.1 |
| 20260509201526 | 12 | 210 | 0.0 | 4.8 | 0.00 | 0.41 | 0.41 | 95 | 1007.2 |
| 20260509200124 | 12 | 221 | 1.6 | 4.8 | 0.00 | 0.41 | 0.41 | 95 | 1007.2 |
| 20260509194520 | 12 | 234 | 1.6 | 6.4 | 0.00 | 0.43 | 0.41 | 95 | 1007.4 |
| 20260509193022 | 12 | 228 | 4.8 | 6.4 | 0.03 | 0.43 | 0.41 | 95 | 1007.6 |
| 20260509191620 | 12 | 210 | 1.6 | 8.0 | 0.05 | 0.43 | 0.41 | 95 | 1007.6 |
| 20260509190021 | 11 | 248 | 3.2 | 8.0 | 0.08 | 0.43 | 0.41 | 95 | 1007.6 |
| 20260509184514 | 11 | 162 | 3.2 | 8.0 | 0.10 | 0.43 | 0.41 | 96 | 1007.8 |
| 20260509183014 | 11 | 188 | 3.2 | 9.7 | 0.15 | 0.41 | 0.38 | 95 | 1007.8 |
| 20260509181514 | 11 | 228 | 3.2 | 11.3 | 0.13 | 0.38 | 0.36 | 95 | 1008.0 |
| 20260509180012 | 11 | 227 | 4.8 | 14.5 | 0.13 | 0.36 | 0.33 | 95 | 1008.0 |
| 20260509174515 | 11 | 219 | 6.4 | 14.5 | 0.13 | 0.41 | 0.30 | 94 | 1008.2 |
| 20260509173011 | 11 | 215 | 6.4 | 16.1 | 0.05 | 0.33 | 0.23 | 94 | 1008.0 |
| 20260509171519 | 11 | 217 | 4.8 | 12.9 | 0.08 | 0.33 | 0.23 | 94 | 1008.0 |
| 20260509170009 | 11 | 229 | 8.0 | 16.1 | 0.08 | 0.30 | 0.20 | 94 | 1008.1 |
| 20260509164508 | 11 | 204 | 3.2 | 6.4 | 0.08 | 0.28 | 0.18 | 95 | 1008.2 |
| 20260509163008 | 11 | 192 | 1.6 | 9.7 | 0.10 | 0.28 | 0.18 | 94 | 1008.0 |
| 20260509161506 | 11 | 199 | 4.8 | 16.1 | 0.08 | 0.25 | 0.15 | 94 | 1008.1 |
| 20260509160011 | 11 | 206 | 8.0 | 17.7 | 0.05 | 0.23 | 0.13 | 94 | 1008.3 |
| 20260509154503 | 11 | 211 | 4.8 | 9.7 | 0.03 | 0.20 | 0.10 | 93 | 1008.4 |
| 20260509153005 | 11 | 198 | 3.2 | 8.0 | 0.03 | 0.18 | 0.08 | 93 | 1008.5 |
| 20260509151500 | 11 | 210 | 3.2 | 8.0 | 0.03 | 0.18 | 0.08 | 93 | 1008.4 |
| 20260509150126 | 11 | 223 | 1.6 | 8.0 | 0.05 | 0.18 | 0.08 | 93 | 1008.4 |
| 20260509144708 | 11 | 194 | 0.0 | 8.0 | 0.05 | 0.18 | 0.08 | 94 | 1008.5 |
| 20260509143055 | 10 | 189 | 0.0 | 6.4 | 0.03 | 0.15 | 0.05 | 93 | 1008.5 |
| 20260509141553 | 10 | 201 | 1.6 | 9.7 | 0.03 | 0.15 | 0.05 | 93 | 1008.5 |
| 20260509140051 | 10 | 175 | 0.0 | 0.0 | 0.00 | 0.13 | 0.03 | 94 | 1008.5 |
| 20260509134549 | 10 | 284 | 0.0 | 1.6 | 0.03 | 0.13 | 0.03 | 94 | 1008.4 |
| 20260509133048 | 10 | 22 | 0.0 | 4.8 | 0.03 | 0.13 | 0.03 | 95 | 1008.5 |
| 20260509131543 | 10 | 348 | 0.0 | 0.0 | 0.03 | 0.13 | 0.03 | 94 | 1008.6 |
| 20260509130042 | 10 | 348 | 0.0 | 0.0 | 0.03 | 0.13 | 0.03 | 94 | 1008.7 |
| 20260509124558 | 10 | 348 | 0.0 | 0.0 | 0.00 | 0.10 | 0.00 | 94 | 1008.8 |
| 20260509123042 | 10 | 348 | 0.0 | 0.0 | 0.00 | 0.10 | 0.00 | 94 | 1008.7 |
| 20260509121544 | 10 | 348 | 0.0 | 0.0 | 0.00 | 0.10 | 0.00 | 94 | 1008.5 |
| 20260509120040 | 10 | 348 | 0.0 | 1.6 | 0.00 | 0.10 | 0.00 | 94 | 1008.5 |
| 20260509114540 | 10 | 24 | 0.0 | 0.0 | 0.00 | 0.10 | 0.00 | 94 | 1008.5 |
| 20260509113039 | 10 | 24 | 0.0 | 1.6 | 0.00 | 0.10 | 0.00 | 94 | 1008.3 |
| 20260509111537 | 10 | 28 | 0.0 | 3.2 | 0.00 | 0.10 | 0.00 | 94 | 1008.4 |
| 20260509110037 | 9 | 27 | 0.0 | 0.0 | 0.00 | 0.10 | 0.00 | 93 | 1008.3 |
| 20260509104538 | 9 | 27 | 0.0 | 0.0 | 0.00 | 0.10 | 0.00 | 93 | 1008.2 |
| 20260509103036 | 9 | 27 | 0.0 | 1.6 | 0.00 | 0.10 | 0.00 | 93 | 1008.2 |
| 20260509101535 | 9 | 27 | 0.0 | 3.2 | 0.00 | 0.10 | 0.00 | 93 | 1008.3 |
| 20260509100048 | 9 | 27 | 1.6 | 4.8 | 0.00 | 0.10 | 0.00 | 93 | 1008.4 |
| 20260509094535 | 9 | 66 | 0.0 | 3.2 | 0.00 | 0.10 | 0.00 | 93 | 1008.4 |
| 20260509093034 | 9 | 71 | 1.6 | 6.4 | 0.00 | 0.10 | 0.00 | 93 | 1008.5 |
| 20260509091530 | 9 | 42 | 0.0 | 0.0 | 0.00 | 0.10 | 0.00 | 93 | 1008.9 |
| 20260509090029 | 9 | 42 | 0.0 | 0.0 | 0.00 | 0.10 | 0.00 | 93 | 1008.6 |
| 20260509084531 | 9 | 42 | 0.0 | 0.0 | 0.00 | 0.10 | 0.00 | 93 | 1008.5 |
| 20260509083026 | 10 | 42 | 0.0 | 1.6 | 0.00 | 0.10 | 0.00 | 93 | 1008.6 |
| 20260509081539 | 10 | 42 | 0.0 | 4.8 | 0.00 | 0.10 | 0.00 | 93 | 1008.6 |
| 20260509080023 | 10 | 79 | 0.0 | 4.8 | 0.00 | 0.10 | 0.00 | 93 | 1008.8 |
| 20260509074521 | 10 | 67 | 1.6 | 6.4 | 0.00 | 0.10 | 0.00 | 93 | 1009.1 |
| 20260509073019 | 10 | 64 | 0.0 | 3.2 | 0.00 | 0.10 | 0.00 | 92 | 1009.2 |
| 20260509071520 | 10 | 63 | 0.0 | 1.6 | 0.00 | 0.10 | 0.00 | 92 | 1009.2 |
| 20260509070017 | 10 | 63 | 0.0 | 4.8 | 0.00 | 0.10 | 0.00 | 92 | 1009.3 |
| 20260509064515 | 10 | 68 | 0.0 | 4.8 | 0.00 | 0.10 | 0.00 | 92 | 1009.3 |
| 20260509063012 | 10 | 68 | 0.0 | 3.2 | 0.00 | 0.10 | 0.00 | 91 | 1009.6 |
| 20260509061512 | 10 | 68 | 0.0 | 0.0 | 0.00 | 0.10 | 0.00 | 91 | 1009.8 |
| 20260509060013 | 10 | 68 | 0.0 | 1.6 | 0.00 | 0.10 | 0.00 | 91 | 1009.9 |
| 20260509054515 | 10 | 68 | 1.6 | 4.8 | 0.00 | 0.10 | 0.00 | 91 | 1010.0 |
| 20260509053009 | 10 | 74 | 1.6 | 4.8 | 0.00 | 0.10 | 0.00 | 91 | 1010.3 |
| 20260509051506 | 10 | 10 | 0.0 | 3.2 | 0.00 | 0.10 | 0.00 | 90 | 1010.4 |
| 20260509050005 | 10 | 10 | 0.0 | 4.8 | 0.00 | 0.10 | 0.00 | 90 | 1010.4 |
| 20260509044501 | 10 | 44 | 0.0 | 1.6 | 0.00 | 0.13 | 0.00 | 90 | 1010.4 |
| 20260509043110 | 10 | 54 | 1.6 | 4.8 | 0.00 | 0.13 | 0.00 | 89 | 1010.0 |
| 20260509041557 | 11 | 13 | 0.0 | 1.6 | 0.00 | 0.13 | 0.00 | 87 | 1010.1 |
| 20260509040057 | 11 | 5 | 0.0 | 0.0 | 0.00 | 0.13 | 0.00 | 86 | 1009.9 |
| 20260509034602 | 11 | 5 | 0.0 | 0.0 | 0.00 | 0.18 | 0.13 | 85 | 1009.8 |
| 20260509033054 | 11 | 5 | 0.0 | 0.0 | 0.00 | 0.18 | 0.13 | 85 | 1010.0 |
| 20260509031600 | 11 | 5 | 0.0 | 0.0 | 0.00 | 0.18 | 0.13 | 85 | 1010.4 |
| 20260509030052 | 11 | 5 | 0.0 | 0.0 | 0.00 | 0.18 | 0.13 | 83 | 1010.0 |
| 20260509024552 | 11 | 5 | 0.0 | 0.0 | 0.00 | 0.18 | 0.13 | 82 | 1010.4 |
| 20260509023058 | 11 | 5 | 0.0 | 0.0 | 0.00 | 0.18 | 0.13 | 82 | 1010.3 |
| 20260509021552 | 11 | 5 | 0.0 | 0.0 | 0.00 | 0.18 | 0.13 | 80 | 1010.5 |
| 20260509020055 | 11 | 5 | 0.0 | 0.0 | 0.00 | 0.18 | 0.13 | 78 | 1010.1 |
| 20260509014551 | 11 | 5 | 0.0 | 0.0 | 0.00 | 0.18 | 0.13 | 78 | 1010.0 |
| 20260509013109 | 11 | 5 | 0.0 | 0.0 | 0.00 | 0.18 | 0.13 | 77 | 1009.9 |
| 20260509011551 | 11 | 5 | 0.0 | 0.0 | 0.00 | 0.18 | 0.13 | 77 | 1009.9 |
| 20260509010050 | 12 | 5 | 0.0 | 0.0 | 0.00 | 0.18 | 0.13 | 77 | 1009.6 |
| 20260509004549 | 12 | 5 | 0.0 | 0.0 | 0.00 | 0.18 | 0.13 | 77 | 1009.6 |
| 20260509003049 | 12 | 5 | 0.0 | 0.0 | 0.00 | 0.18 | 0.13 | 76 | 1009.3 |
| 20260509001548 | 12 | 5 | 0.0 | 0.0 | 0.00 | 0.18 | 0.13 | 76 | 1009.3 |
| 20260509000049 | 12 | 5 | 0.0 | 0.0 | 0.00 | 0.18 | 0.13 | 75 | 1009.3 |